Flight Track Log - Related Links

Times and Time Zones

All times are in EDT time to prevent confusion due to time zone crossing. See the N6498K flight status page for this flight to view local times or setup timezone preferences in your user account.


Time Position Orientation Groundspeed Altitude Reporting Facility
EDT Latitude Longitude Course Direction KTS MPH feet Rate Location/Type
Tue 04:48:00 PM 41.0312 -80.5353 300° West  Level Estimated
Tue 04:49:00 PM 41.0503 -80.5795 300° West  Level Estimated
Tue 04:50:00 PM 41.0694 -80.6238 300° West  Level Estimated
Tue 04:51:00 PM 41.0884 -80.6681 300° West  Level Estimated
Tue 04:52:00 PM 41.1075 -80.7123 300° West  Level Estimated
Tue 04:53:00 PM 41.1265 -80.7567 300° West  Level Estimated
Tue 04:54:00 PM 41.1455 -80.8010 300° West  Level Estimated
Tue 04:55:00 PM 41.1644 -80.8454 300° West  Level Estimated
Tue 04:56:00 PM 41.1834 -80.8898 300° West  Level Estimated
Tue 04:57:00 PM 41.2023 -80.9342 300° West  Level Estimated
Tue 04:58:00 PM 41.2212 -80.9787 300° West  Level Estimated
Tue 04:59:00 PM 41.2402 -81.0231 299° West  Level Estimated
Tue 05:00:00 PM 41.2590 -81.0676 299° West  Level Estimated
Tue 05:01:00 PM 41.2779 -81.1122 299° West  Level Estimated
Tue 05:02:00 PM 41.2968 -81.1567 299° West  Level Estimated
Tue 05:03:00 PM 41.3156 -81.2013 299° West  Level Estimated
Tue 05:04:00 PM 41.3344 -81.2459 299° West  Level Estimated
Tue 05:05:00 PM 41.3532 -81.2906 299° West  Level Estimated
Tue 05:06:00 PM 41.3720 -81.3352 299° West  Level Estimated
Tue 05:07:00 PM 41.3908 -81.3799 299° West  Level Estimated
Tue 05:07:57 PM 41.3719 -80.8433 299° West 105 121 4,500  Level Cleveland Center
Tue 05:08:00 PM 41.4095 -81.4246 299° West  Level Estimated
Tue 05:09:00 PM 41.4283 -81.4693 299° West  Level Estimated
Tue 05:09:10 PM 41.4031 -80.8683 329° Northwest 104 120 4,400  Level Cleveland Center
Tue 05:10:00 PM 41.4470 -81.5141 299° West  Level Estimated
Tue 05:10:10 PM 41.4217 -80.8878 322° Northwest 97 112 4,500  Level Cleveland Center
Tue 05:11:00 PM 41.4657 -81.5589 299° West  Level Estimated
Tue 05:11:11 PM 41.4406 -80.9183 310° West 102 117 4,400  Level Cleveland Center
Tue 05:12:00 PM 41.4844 -81.6037 299° West  Level Estimated
Tue 05:12:17 PM 41.4569 -80.9489 306° West 91 105 4,500  Level Cleveland Center
Tue 05:13:00 PM 41.5030 -81.6485 299° West  Level Estimated
Tue 05:13:12 PM 41.4547 -80.9794 264° West 94 108 4,500  Level Cleveland Center
Tue 05:14:07 PM 41.4547 -81.0097 270° West 93 107 4,500  Level Cleveland Center
Tue 05:15:01 PM 41.4506 -81.0403 260° West 91 105 4,500  Level Cleveland Center
Tue 05:16:02 PM 41.4481 -81.0761 265° West 93 107 4,500  Level Cleveland Center
Tue 05:17:14 PM 41.4481 -81.1178 270° West 96 110 4,500  Level Cleveland Center
Tue 05:18:21 PM 41.4458 -81.1567 266° West 95 109 4,500  Level Cleveland Center
Tue 05:19:28 PM 41.4456 -81.1981 270° West 97 112 4,500  Level Cleveland Center
Tue 05:20:29 PM 41.4578 -81.2342 294° West 104 120 4,500  Level Cleveland Center
Tue 05:21:47 PM 41.4700 -81.2758 291° West 94 108 4,500  Level Cleveland Center
Tue 05:22:18 PM 41.4783 -81.2897 309° West 91 105 4,500 -65 Level Cleveland Center
Tue 05:23:19 PM 41.4864 -81.3258 287° West 102 117 4,400 -135 Descending Cleveland Center
Tue 05:24:31 PM 41.4967 -81.3733 286° West 104 120 4,200 -316 Descending Cleveland Center
Tue 05:25:32 PM 41.5047 -81.4094 287° West 111 128 3,700 -469 Descending Cleveland Center
Tue 05:26:39 PM 41.5147 -81.4539 287° West 102 117 3,200 -358 Descending Cleveland Center
Tue 05:27:46 PM 41.5247 -81.4928 289° West 101 116 2,900 -269 Descending Cleveland Center

Login

Don't have an account? Register now (free) for customized features, flight alerts, and more!